Airfield :
LOGIN :

Register | Disclaimer

   EN    FR    IT 

 










Legend :    VFR   Marginal VFR   IFR   Intensive IFR   Very Intensive IFR
Visi :
Ceiling :
>= 8 km
>= 3000ft
5 to 8 km
1000 to 3000 ft
1500m to 5 km
500 to 1000 ft
800 to 1500m
200 to 500 ft
< 800m
< 200 ft
Symbols :   Thunderstorms  Fog  Heavy snow  Heavy precipitations  Wind > 20 kt
SIGMETs :     Misc.  Thunderstorms  Icing  Turbulence  Mountain Waves  Volcanic Ashes






- Airport Elevation : 124 ft
- IATA code : RNS


LFRN - Rennes

CURRENT METAR :
  • 271430Z AUTO 32018KT 9999 BKN036 OVC044 10/04 Q1010 NOSIG

EXPIRED METARs :
  • 271400Z AUTO 31017KT 9999 SCT029 BKN038 OVC045 09/04 Q1009 TEMPO 32015G25KT
  • 271330Z AUTO 31018KT 9999 BKN027 BKN033 OVC040 09/04 Q1008 TEMPO 32015G25KT
  • 271300Z AUTO 31019G31KT 9999 FEW014 BKN024 OVC032 08/04 Q1007 NOSIG
  • 271230Z AUTO 31019KT 9999 BKN020 OVC029 09/05 Q1006 BECMG 32015G25KT
  • 271200Z AUTO 31023KT 9999 BKN019 OVC025 08/05 Q1006 TEMPO BKN014 BECMG 32015G25KT

TAF TAF LFRN
Valid from the 27 at 12:00 until the 28 at 12:00 UTC


271100Z 2712/2812 32023G35KT 9999 BKN020
TEMPO 2712/2713 5000 -SHRA BKN014
BECMG 2713/2715 32015G25KT
BECMG 2715/2717 32010KT
BECMG 2718/2720 VRB04KT
BECMG 2802/2804 17010KT
TEMPO 2804/2808 4000 RA
BECMG 2806/2808 OVC008
TEMPO 2808/2812 4000 DZ BKN004
ATIS : +33 2 99 67 72 50



MET'MAP, your aeronautical weather chart ! - Copyright ORBIFLY December 2007 - Disclaimer

ORBIFLY MET'MAP TEAM :

Programming & Development : Alexandra Zaïnal
Concept & original design : Baudouin d'Aumeries
Assistance for programming : Marc-Olivier Méhu
Technical & hardware support : Manuel Goepfert

Contact : metmap@orbifly.com




SOURCES & CREDITS :

   NOAA